createdAt,value
2019-03-24T00:00:33.757Z,117.17
2019-03-24T00:03:04.115Z,118.60
2019-03-24T00:05:37.790Z,119.22
2019-03-24T00:10:37.404Z,116.40
2019-03-24T00:13:07.813Z,113.15
2019-03-24T00:15:38.117Z,113.88
2019-03-24T00:18:14.820Z,109.65
2019-03-24T00:20:45.035Z,114.00
2019-03-24T00:23:15.335Z,115.28
2019-03-24T00:25:45.546Z,118.62
2019-03-24T00:28:15.848Z,123.55
2019-03-24T00:30:46.061Z,118.90
2019-03-24T00:33:16.369Z,121.15
2019-03-24T00:35:46.646Z,128.00
2019-03-24T00:38:16.898Z,126.05
2019-03-24T00:40:47.104Z,124.25
2019-03-24T00:43:17.421Z,119.87
2019-03-24T00:45:47.632Z,133.32
2019-03-24T00:48:17.860Z,120.75
2019-03-24T00:50:49.168Z,118.25
2019-03-24T00:53:19.495Z,117.90
2019-03-24T00:55:49.803Z,115.80
2019-03-24T00:58:20.012Z,111.45
2019-03-24T01:00:51.672Z,107.83
2019-03-24T01:03:21.978Z,94.37
2019-03-24T01:05:52.190Z,88.50
2019-03-24T01:08:22.489Z,83.85
2019-03-24T01:10:52.860Z,71.67
2019-03-24T01:13:23.085Z,74.77
2019-03-24T01:15:54.344Z,71.77
2019-03-24T01:18:25.691Z,74.70
2019-03-24T01:20:55.967Z,75.45
2019-03-24T01:23:26.268Z,77.55
2019-03-24T01:25:56.589Z,72.70
2019-03-24T01:28:26.899Z,67.53
2019-03-24T01:30:57.163Z,61.13
2019-03-24T01:33:27.475Z,63.60
2019-03-24T01:35:57.735Z,60.90
2019-03-24T01:38:28.102Z,60.33
2019-03-24T01:40:58.352Z,62.80
2019-03-24T01:43:28.671Z,53.23
2019-03-24T01:45:59.108Z,60.55
2019-03-24T01:48:29.726Z,56.28
2019-03-24T01:51:00.023Z,55.08
2019-03-24T01:53:30.387Z,59.45
2019-03-24T01:56:00.671Z,54.88
2019-03-24T01:58:30.969Z,61.85
2019-03-24T02:01:01.255Z,53.20
2019-03-24T02:03:31.578Z,56.85
2019-03-24T02:06:02.907Z,55.05
2019-03-24T02:08:33.144Z,57.03
2019-03-24T02:11:03.435Z,57.43
2019-03-24T02:13:33.754Z,51.85
2019-03-24T02:16:09.396Z,53.95
2019-03-24T02:18:36.964Z,53.35
2019-03-24T02:21:08.642Z,52.27
2019-03-24T02:23:38.930Z,55.85
2019-03-24T02:26:09.200Z,53.05
2019-03-24T02:28:39.508Z,49.63
2019-03-24T02:31:09.804Z,56.10
2019-03-24T02:33:40.095Z,45.78
2019-03-24T02:36:10.285Z,52.50
2019-03-24T02:38:40.603Z,58.30
2019-03-24T02:41:10.879Z,51.23
2019-03-24T02:43:41.271Z,50.43
2019-03-24T02:46:23.446Z,56.60
2019-03-24T02:48:43.652Z,56.65
2019-03-24T02:51:13.907Z,45.98
2019-03-24T02:53:44.213Z,52.03
2019-03-24T02:56:14.484Z,51.42
2019-03-24T02:58:44.789Z,49.70
2019-03-24T03:01:15.040Z,47.03
2019-03-24T03:03:45.339Z,47.62
2019-03-24T03:06:15.543Z,51.10
2019-03-24T03:08:45.805Z,50.17
2019-03-24T03:11:16.131Z,51.53
2019-03-24T03:13:46.383Z,49.10
2019-03-24T03:16:16.629Z,54.83
2019-03-24T03:18:46.928Z,50.63
2019-03-24T03:21:17.246Z,50.00
2019-03-24T03:23:47.518Z,48.02
2019-03-24T03:26:17.816Z,47.27
2019-03-24T03:28:48.114Z,60.80
2019-03-24T03:31:18.408Z,53.38
2019-03-24T03:33:48.608Z,58.02
2019-03-24T03:36:18.917Z,56.02
2019-03-24T03:38:49.209Z,56.63
2019-03-24T03:41:19.496Z,51.42
2019-03-24T03:43:49.808Z,53.00
2019-03-24T03:46:20.163Z,62.50
2019-03-24T03:48:50.398Z,51.50
2019-03-24T03:51:20.783Z,56.02
2019-03-24T03:53:51.026Z,58.55
2019-03-24T03:56:21.342Z,50.67
2019-03-24T03:58:51.652Z,50.92
2019-03-24T04:01:21.905Z,51.85
2019-03-24T04:03:52.206Z,49.98
2019-03-24T04:06:22.551Z,51.13
2019-03-24T04:08:52.813Z,53.70
2019-03-24T04:11:23.146Z,57.78
2019-03-24T04:13:53.409Z,49.95
2019-03-24T04:16:23.691Z,48.28
2019-03-24T04:18:53.893Z,54.45
2019-03-24T04:21:24.917Z,49.75
2019-03-24T04:23:55.132Z,50.65
2019-03-24T04:26:25.493Z,49.05
2019-03-24T04:28:55.712Z,53.87
2019-03-24T04:31:26.069Z,49.60
2019-03-24T04:33:56.351Z,49.03
2019-03-24T04:36:26.699Z,48.23
2019-03-24T04:38:57.021Z,57.98
2019-03-24T04:41:27.354Z,47.25
2019-03-24T04:43:57.583Z,46.55
2019-03-24T04:46:27.839Z,43.05
2019-03-24T04:49:00.804Z,47.10
2019-03-24T04:51:31.074Z,48.08
2019-03-24T04:54:01.375Z,47.88
2019-03-24T04:56:31.640Z,53.45
2019-03-24T04:59:01.992Z,45.75
2019-03-24T05:01:32.264Z,54.98
2019-03-24T05:04:02.577Z,47.10
2019-03-24T05:06:32.980Z,52.73
2019-03-24T05:09:03.788Z,47.23
2019-03-24T05:11:34.063Z,45.50
2019-03-24T05:14:04.376Z,49.53
2019-03-24T05:16:35.634Z,47.05
2019-03-24T05:19:05.949Z,52.85
2019-03-24T05:21:36.211Z,50.33
2019-03-24T05:24:06.499Z,50.52
2019-03-24T05:26:37.754Z,44.18
2019-03-24T05:29:08.140Z,48.05
2019-03-24T05:31:38.451Z,45.60
2019-03-24T05:34:08.726Z,40.88
2019-03-24T05:36:39.035Z,43.13
2019-03-24T05:39:09.451Z,43.10
2019-03-24T05:41:39.697Z,46.48
2019-03-24T05:44:09.947Z,39.65
2019-03-24T05:46:40.255Z,43.48
2019-03-24T05:49:10.557Z,46.55
2019-03-24T05:51:40.872Z,43.20
2019-03-24T05:54:11.127Z,49.70
2019-03-24T05:56:41.625Z,40.25
2019-03-24T05:59:11.992Z,39.05
2019-03-24T06:01:43.850Z,45.08
2019-03-24T06:04:14.213Z,42.73
2019-03-24T06:06:44.902Z,44.23
2019-03-24T06:09:15.379Z,45.38
2019-03-24T06:11:45.705Z,51.83
2019-03-24T06:14:16.074Z,37.25
2019-03-24T06:16:46.366Z,60.43
2019-03-24T06:19:17.992Z,50.05
2019-03-24T06:21:48.291Z,41.50
2019-03-24T06:24:18.562Z,41.65
2019-03-24T06:26:48.950Z,41.18
2019-03-24T06:29:19.562Z,37.23
2019-03-24T06:31:50.512Z,46.65
2019-03-24T06:34:20.672Z,43.98
2019-03-24T06:36:50.988Z,51.10
2019-03-24T06:39:22.516Z,45.65
2019-03-24T06:41:52.814Z,52.90
2019-03-24T06:44:23.077Z,39.42
2019-03-24T06:46:53.379Z,48.58
2019-03-24T06:49:23.676Z,43.55
2019-03-24T06:51:53.969Z,52.53
2019-03-24T06:54:24.258Z,40.10
2019-03-24T06:56:57.585Z,49.33
2019-03-24T06:59:27.837Z,50.20
2019-03-24T07:01:58.073Z,45.63
2019-03-24T07:04:28.251Z,43.38
2019-03-24T07:06:58.591Z,41.45
2019-03-24T07:09:28.985Z,32.33
2019-03-24T07:12:00.191Z,37.95
2019-03-24T07:14:30.667Z,36.10
2019-03-24T07:17:00.883Z,31.15
2019-03-24T07:19:31.157Z,35.63
2019-03-24T07:22:02.446Z,32.93
2019-03-24T07:24:32.722Z,32.13
2019-03-24T07:27:06.101Z,31.45
2019-03-24T07:29:36.537Z,34.18
2019-03-24T07:32:06.793Z,35.05
2019-03-24T07:34:37.194Z,34.38
2019-03-24T07:37:07.450Z,32.63
2019-03-24T07:39:38.700Z,30.97
2019-03-24T07:42:12.742Z,37.10
2019-03-24T07:44:42.956Z,38.17
2019-03-24T07:47:13.981Z,37.15
2019-03-24T07:49:44.273Z,33.92
2019-03-24T07:52:15.555Z,27.93
2019-03-24T07:54:45.839Z,30.15
2019-03-24T07:57:16.072Z,34.67
2019-03-24T07:59:46.339Z,35.92
2019-03-24T08:02:17.921Z,33.38
2019-03-24T08:04:48.255Z,31.68
2019-03-24T08:07:18.543Z,29.95
2019-03-24T08:09:48.748Z,33.42
2019-03-24T08:12:19.041Z,24.47
2019-03-24T08:14:49.343Z,32.63
2019-03-24T08:17:19.646Z,29.98
2019-03-24T08:19:49.919Z,26.20
2019-03-24T08:22:20.224Z,24.90
2019-03-24T08:24:50.486Z,26.97
2019-03-24T08:27:20.780Z,29.55
2019-03-24T08:29:51.139Z,24.43
2019-03-24T08:32:21.468Z,26.80
2019-03-24T08:34:51.742Z,31.97
2019-03-24T08:37:25.078Z,30.45
2019-03-24T08:39:55.270Z,27.52
2019-03-24T08:42:25.572Z,33.18
2019-03-24T08:44:55.848Z,39.85
2019-03-24T08:47:26.054Z,29.35
2019-03-24T08:49:56.256Z,32.78
2019-03-24T08:52:26.567Z,29.27
2019-03-24T08:54:56.834Z,28.55
2019-03-24T08:57:27.158Z,29.87
2019-03-24T08:59:57.430Z,24.18
2019-03-24T09:02:28.526Z,30.40
2019-03-24T09:04:58.888Z,23.30
2019-03-24T09:07:29.216Z,28.55
2019-03-24T09:09:59.554Z,23.92
2019-03-24T09:12:31.236Z,26.80
2019-03-24T09:15:08.455Z,30.32
2019-03-24T09:17:41.153Z,24.35
2019-03-24T09:20:11.523Z,27.85
2019-03-24T09:22:41.795Z,25.40
2019-03-24T09:25:12.248Z,22.40
2019-03-24T09:27:42.552Z,27.07
2019-03-24T09:30:18.475Z,28.00
2019-03-24T09:32:48.777Z,27.77
2019-03-24T09:35:19.772Z,26.27
2019-03-24T09:37:50.091Z,28.50
2019-03-24T09:40:28.942Z,28.17
2019-03-24T09:42:59.818Z,31.82
2019-03-24T09:45:31.311Z,26.35
2019-03-24T09:48:03.991Z,25.37
2019-03-24T09:50:34.315Z,28.17
2019-03-24T09:53:04.729Z,28.17
2019-03-24T09:55:34.987Z,22.27
2019-03-24T09:58:05.520Z,24.47
2019-03-24T10:00:35.798Z,28.52
2019-03-24T10:03:06.115Z,25.65
2019-03-24T10:05:36.317Z,27.65
2019-03-24T10:08:07.545Z,22.95
2019-03-24T10:10:47.293Z,20.08
2019-03-24T10:13:17.544Z,26.10
2019-03-24T10:15:48.221Z,26.60
2019-03-24T10:18:18.517Z,24.63
2019-03-24T10:20:48.883Z,25.55
2019-03-24T10:23:19.781Z,25.40
2019-03-24T10:25:50.041Z,23.30
2019-03-24T10:28:20.341Z,25.82
2019-03-24T10:30:50.701Z,27.32
2019-03-24T10:33:21.017Z,22.58
2019-03-24T10:35:51.291Z,26.40
2019-03-24T10:38:22.185Z,21.62
2019-03-24T10:40:52.494Z,26.10
2019-03-24T10:43:22.799Z,24.90
2019-03-24T10:45:53.059Z,24.35
2019-03-24T10:48:33.164Z,18.92
2019-03-24T10:50:55.265Z,24.72
2019-03-24T10:53:25.568Z,21.85
2019-03-24T10:55:55.849Z,27.17
2019-03-24T10:58:26.202Z,21.07
2019-03-24T11:00:56.355Z,24.52
2019-03-24T11:03:27.151Z,28.27
2019-03-24T11:05:57.299Z,21.85
2019-03-24T11:08:27.651Z,26.48
2019-03-24T11:10:57.920Z,23.50
2019-03-24T11:13:28.274Z,19.92
2019-03-24T11:15:59.651Z,24.23
2019-03-24T11:18:30.278Z,19.32
2019-03-24T11:21:00.533Z,26.17
2019-03-24T11:23:31.487Z,21.73
2019-03-24T11:26:02.681Z,21.97
2019-03-24T11:28:33.023Z,19.12
2019-03-24T11:31:03.290Z,22.45
2019-03-24T11:33:33.558Z,23.22
2019-03-24T11:36:03.910Z,18.92
2019-03-24T11:38:34.247Z,31.30
2019-03-24T11:41:04.501Z,24.35
2019-03-24T11:43:35.140Z,20.77
2019-03-24T11:46:05.600Z,22.62
2019-03-24T11:48:35.883Z,25.30
2019-03-24T11:51:06.727Z,20.85
2019-03-24T11:53:37.079Z,22.48
2019-03-24T11:56:07.363Z,21.23
2019-03-24T11:58:37.765Z,20.60
2019-03-24T12:01:08.007Z,18.65
2019-03-24T12:03:38.342Z,27.45
2019-03-24T12:06:14.360Z,24.95
2019-03-24T12:08:41.081Z,24.18
2019-03-24T12:11:11.365Z,21.17
2019-03-24T12:13:41.709Z,24.18
2019-03-24T12:16:11.972Z,24.75
2019-03-24T12:18:43.301Z,21.62
2019-03-24T12:21:13.627Z,19.73
2019-03-24T12:23:43.877Z,25.12
2019-03-24T12:26:14.168Z,18.73
2019-03-24T12:28:44.435Z,24.47
2019-03-24T12:31:14.751Z,21.85
2019-03-24T12:33:45.019Z,21.20
2019-03-24T12:36:15.321Z,17.52
2019-03-24T12:38:45.533Z,26.23
2019-03-24T12:41:15.755Z,18.73
2019-03-24T12:43:46.883Z,24.18
2019-03-24T12:46:17.305Z,23.40
2019-03-24T12:48:47.574Z,21.05
2019-03-24T12:51:17.939Z,21.20
2019-03-24T12:53:48.127Z,21.90
2019-03-24T12:56:18.627Z,25.40
2019-03-24T12:58:48.935Z,20.72
2019-03-24T13:01:19.223Z,26.50
2019-03-24T13:03:49.494Z,22.80
2019-03-24T13:06:19.779Z,24.63
2019-03-24T13:08:49.982Z,17.48
2019-03-24T13:11:20.284Z,20.17
2019-03-24T13:13:50.479Z,22.15
2019-03-24T13:16:20.771Z,26.90
2019-03-24T13:18:51.483Z,26.30
2019-03-24T13:21:21.685Z,19.80
2019-03-24T13:23:51.946Z,25.00
2019-03-24T13:26:22.250Z,18.23
2019-03-24T13:28:52.435Z,24.75
2019-03-24T13:31:22.782Z,25.40
2019-03-24T13:33:52.982Z,21.33
2019-03-24T13:36:23.318Z,20.02
2019-03-24T13:38:53.516Z,22.87
2019-03-24T13:41:24.960Z,19.07
2019-03-24T13:43:56.006Z,26.73
2019-03-24T13:46:26.202Z,21.50
2019-03-24T13:48:56.443Z,21.55
2019-03-24T13:51:29.597Z,20.20
2019-03-24T13:53:59.909Z,21.40
2019-03-24T13:56:30.180Z,25.50
2019-03-24T13:59:00.487Z,19.85
2019-03-24T14:01:30.739Z,26.82
2019-03-24T14:04:00.975Z,22.65
2019-03-24T14:06:32.237Z,20.70
2019-03-24T14:09:02.526Z,20.40
2019-03-24T14:11:34.373Z,22.73
2019-03-24T14:14:05.039Z,22.98
2019-03-24T14:16:35.275Z,17.55
2019-03-24T14:19:05.601Z,22.07
2019-03-24T14:21:35.857Z,17.25
2019-03-24T14:24:06.187Z,25.30
2019-03-24T14:26:37.541Z,19.55
2019-03-24T14:29:07.727Z,19.98
2019-03-24T14:31:38.010Z,29.15
2019-03-24T14:34:08.375Z,23.10
2019-03-24T14:36:38.645Z,23.05
2019-03-24T14:39:08.952Z,17.77
2019-03-24T14:41:39.203Z,23.50
2019-03-24T14:44:09.434Z,19.32
2019-03-24T14:46:39.687Z,21.65
2019-03-24T14:49:09.980Z,28.87
2019-03-24T14:51:41.551Z,19.00
2019-03-24T14:54:11.904Z,20.40
2019-03-24T14:56:42.088Z,23.70
2019-03-24T14:59:12.396Z,23.07
2019-03-24T15:01:42.672Z,30.27
2019-03-24T15:04:12.920Z,27.70
2019-03-24T15:06:44.138Z,31.25
2019-03-24T15:09:14.437Z,30.88
2019-03-24T15:11:44.645Z,23.47
2019-03-24T15:14:14.863Z,25.72
2019-03-24T15:16:45.142Z,27.45
2019-03-24T15:19:15.380Z,23.62
2019-03-24T15:21:45.676Z,30.45
2019-03-24T15:24:15.930Z,25.25
2019-03-24T15:26:46.272Z,27.62
2019-03-24T15:29:17.416Z,30.68
2019-03-24T15:31:47.702Z,19.80
2019-03-24T15:34:17.895Z,28.23
2019-03-24T15:36:48.346Z,33.15
2019-03-24T15:39:18.600Z,21.77
2019-03-24T15:41:48.942Z,35.73
2019-03-24T15:44:19.850Z,30.55
2019-03-24T15:46:51.206Z,30.05
2019-03-24T15:49:21.510Z,26.70
2019-03-24T15:51:51.713Z,32.33
2019-03-24T15:54:22.011Z,24.57
2019-03-24T15:56:52.776Z,29.37
2019-03-24T15:59:23.017Z,31.77
2019-03-24T16:01:53.319Z,37.33
2019-03-24T16:04:23.600Z,28.60
2019-03-24T16:06:54.253Z,34.33
2019-03-24T16:09:24.542Z,26.93
2019-03-24T16:11:55.354Z,29.42
2019-03-24T16:14:25.606Z,30.88
2019-03-24T16:16:55.880Z,27.27
2019-03-24T16:19:30.787Z,31.12
2019-03-24T16:22:01.062Z,33.60
2019-03-24T16:24:31.380Z,28.50
2019-03-24T16:27:03.509Z,30.15
2019-03-24T16:29:34.223Z,27.93
2019-03-24T16:32:04.360Z,30.45
2019-03-24T16:34:34.659Z,26.30
2019-03-24T16:37:04.934Z,35.78
2019-03-24T16:39:35.252Z,26.55
2019-03-24T16:42:05.552Z,28.23
2019-03-24T16:44:35.784Z,35.75
2019-03-24T16:47:06.138Z,32.55
2019-03-24T16:49:36.446Z,28.02
2019-03-24T16:52:06.700Z,31.25
2019-03-24T16:54:37.038Z,32.70
2019-03-24T16:57:07.330Z,32.23
2019-03-24T16:59:37.627Z,33.45
2019-03-24T17:02:07.910Z,35.78
2019-03-24T17:04:38.344Z,32.10
2019-03-24T17:07:08.620Z,34.18
2019-03-24T17:09:38.986Z,33.67
2019-03-24T17:12:09.253Z,39.23
2019-03-24T17:14:40.892Z,37.60
2019-03-24T17:17:11.541Z,35.90
2019-03-24T17:19:42.016Z,39.53
2019-03-24T17:22:12.280Z,33.30
2019-03-24T17:24:42.683Z,37.20
2019-03-24T17:27:12.960Z,43.68
2019-03-24T17:29:43.337Z,49.80
2019-03-24T17:32:13.607Z,49.63
2019-03-24T17:34:43.981Z,45.88
2019-03-24T17:37:14.175Z,43.13
2019-03-24T17:39:44.532Z,39.83
2019-03-24T17:42:14.717Z,38.30
2019-03-24T17:44:45.018Z,50.55
2019-03-24T17:47:15.311Z,35.33
2019-03-24T17:49:46.349Z,29.90
2019-03-24T17:52:16.614Z,34.20
2019-03-24T17:54:48.065Z,38.02
2019-03-24T17:57:18.339Z,44.40
2019-03-24T17:59:48.737Z,40.48
2019-03-24T18:02:19.851Z,36.85
2019-03-24T18:04:50.459Z,33.75
2019-03-24T18:07:20.739Z,38.20
2019-03-24T18:09:51.083Z,34.33
2019-03-24T18:12:21.359Z,38.63
2019-03-24T18:15:00.601Z,53.17
2019-03-24T18:17:30.885Z,36.08
2019-03-24T18:20:01.316Z,40.03
2019-03-24T18:22:31.597Z,37.38
2019-03-24T18:25:01.945Z,44.75
2019-03-24T18:27:33.429Z,37.35
2019-03-24T18:30:04.787Z,42.10
2019-03-24T18:32:35.070Z,39.55
2019-03-24T18:35:08.214Z,39.92
2019-03-24T18:37:38.471Z,34.78
2019-03-24T18:40:10.210Z,38.60
2019-03-24T18:42:40.480Z,40.83
2019-03-24T18:45:12.053Z,45.92
2019-03-24T18:47:42.328Z,44.88
2019-03-24T18:50:12.912Z,48.55
2019-03-24T18:52:43.175Z,38.35
2019-03-24T18:55:13.848Z,41.15
2019-03-24T18:57:44.133Z,45.48
2019-03-24T19:00:15.683Z,38.55
2019-03-24T19:02:45.944Z,45.15
2019-03-24T19:05:17.181Z,48.40
2019-03-24T19:07:47.480Z,56.35
2019-03-24T19:10:17.920Z,52.73
2019-03-24T19:12:48.198Z,52.00
2019-03-24T19:15:25.280Z,47.93
2019-03-24T19:17:55.572Z,48.40
2019-03-24T19:20:25.953Z,52.65
2019-03-24T19:22:56.208Z,43.48
2019-03-24T19:25:26.572Z,51.18
2019-03-24T19:27:56.844Z,49.00
2019-03-24T19:30:36.139Z,54.88
2019-03-24T19:33:06.505Z,47.88
2019-03-24T19:35:36.849Z,51.20
2019-03-24T19:38:08.235Z,55.17
2019-03-24T19:40:38.476Z,48.13
2019-03-24T19:43:08.779Z,58.13
2019-03-24T19:45:39.109Z,55.03
2019-03-24T19:48:09.390Z,53.80
2019-03-24T19:50:39.764Z,48.40
2019-03-24T19:53:10.029Z,59.80
2019-03-24T19:55:40.379Z,48.75
2019-03-24T19:58:10.628Z,54.27
2019-03-24T20:00:41.108Z,56.42
2019-03-24T20:03:13.236Z,52.13
2019-03-24T20:05:43.568Z,55.05
2019-03-24T20:08:13.842Z,51.88
2019-03-24T20:10:44.214Z,59.18
2019-03-24T20:13:14.473Z,60.23
2019-03-24T20:15:44.767Z,57.03
2019-03-24T20:18:16.186Z,65.28
2019-03-24T20:20:46.544Z,62.55
2019-03-24T20:23:18.358Z,58.80
2019-03-24T20:25:49.471Z,57.45
2019-03-24T20:28:19.772Z,58.70
2019-03-24T20:30:50.127Z,56.18
2019-03-24T20:33:20.454Z,57.83
2019-03-24T20:35:50.794Z,55.73
2019-03-24T20:38:21.778Z,54.00
2019-03-24T20:40:52.337Z,58.63
2019-03-24T20:43:24.208Z,62.48
2019-03-24T20:45:54.490Z,60.45
2019-03-24T20:48:24.757Z,57.27
2019-03-24T20:50:54.957Z,61.58
2019-03-24T20:53:26.275Z,57.55
2019-03-24T20:55:57.315Z,58.83
2019-03-24T20:58:27.658Z,62.08
2019-03-24T21:00:57.929Z,60.00
2019-03-24T21:03:28.262Z,52.80
2019-03-24T21:05:58.753Z,64.87
2019-03-24T21:08:29.023Z,57.93
2019-03-24T21:10:59.295Z,61.50
2019-03-24T21:13:29.599Z,71.02
2019-03-24T21:15:59.864Z,64.27
2019-03-24T21:18:30.174Z,65.05
2019-03-24T21:21:00.424Z,66.17
2019-03-24T21:23:30.735Z,63.78
2019-03-24T21:26:01.007Z,62.17
2019-03-24T21:28:31.319Z,53.70
2019-03-24T21:31:01.495Z,62.90
2019-03-24T21:33:31.975Z,66.40
2019-03-24T21:36:02.235Z,58.05
2019-03-24T21:38:32.604Z,60.00
2019-03-24T21:41:02.872Z,58.25
2019-03-24T21:43:33.180Z,62.80
2019-03-24T21:46:03.446Z,58.55
2019-03-24T21:48:33.761Z,62.13
2019-03-24T21:51:03.948Z,71.82
2019-03-24T21:53:40.746Z,61.58
2019-03-24T21:56:06.199Z,54.45
2019-03-24T21:58:36.560Z,57.70
2019-03-24T22:01:06.829Z,54.60
2019-03-24T22:03:37.203Z,62.90
2019-03-24T22:06:07.374Z,55.23
2019-03-24T22:08:37.724Z,54.40
2019-03-24T22:11:07.988Z,53.70
2019-03-24T22:13:38.330Z,47.98
2019-03-24T22:16:10.311Z,52.20
2019-03-24T22:18:40.628Z,47.25
2019-03-24T22:21:10.889Z,46.48
2019-03-24T22:23:51.838Z,47.55
2019-03-24T22:26:13.633Z,50.48
2019-03-24T22:28:43.912Z,42.78
2019-03-24T22:31:14.103Z,45.50
2019-03-24T22:33:44.332Z,43.02
2019-03-24T22:36:14.521Z,42.27
2019-03-24T22:38:49.641Z,45.83
2019-03-24T22:41:19.880Z,44.53
2019-03-24T22:43:50.543Z,40.15
2019-03-24T22:46:20.808Z,44.33
2019-03-24T22:48:51.097Z,46.20
2019-03-24T22:51:21.372Z,39.42
2019-03-24T22:54:02.797Z,44.53
2019-03-24T22:56:23.950Z,51.88
2019-03-24T22:58:54.136Z,45.20
2019-03-24T23:01:24.496Z,47.65
2019-03-24T23:04:08.776Z,43.68
2019-03-24T23:06:39.089Z,44.53
2019-03-24T23:09:09.491Z,45.52
2019-03-24T23:11:39.704Z,52.15
2019-03-24T23:14:10.012Z,47.65
2019-03-24T23:16:42.302Z,40.23
2019-03-24T23:19:12.673Z,52.00
2019-03-24T23:21:42.934Z,45.75
2019-03-24T23:24:15.832Z,50.10
2019-03-24T23:26:45.171Z,52.33
2019-03-24T23:29:16.021Z,50.23
2019-03-24T23:31:47.743Z,46.15
2019-03-24T23:34:18.477Z,54.80
2019-03-24T23:36:48.599Z,48.98
2019-03-24T23:39:19.971Z,48.38
2019-03-24T23:41:50.164Z,38.50
2019-03-24T23:44:21.494Z,56.33
2019-03-24T23:46:53.592Z,48.85
2019-03-24T23:49:23.944Z,43.15
2019-03-24T23:51:54.132Z,46.88
2019-03-24T23:54:27.260Z,43.85
2019-03-24T23:56:56.286Z,44.93
2019-03-24T23:59:26.628Z,41.18
